sensor_id;sensor_type;location;lat;lon;timestamp;P1;durP1;ratioP1;P2;durP2;ratioP2
75696;SDS011;64312;44.738;20.612;2022-10-29T00:01:46;9.23;;;4.95;;
75696;SDS011;64312;44.738;20.612;2022-10-29T00:04:12;8.55;;;4.90;;
75696;SDS011;64312;44.738;20.612;2022-10-29T00:06:37;7.28;;;4.38;;
75696;SDS011;64312;44.738;20.612;2022-10-29T00:09:03;7.95;;;4.97;;
75696;SDS011;64312;44.738;20.612;2022-10-29T00:11:29;10.13;;;4.40;;
75696;SDS011;64312;44.738;20.612;2022-10-29T00:13:56;8.43;;;5.05;;
75696;SDS011;64312;44.738;20.612;2022-10-29T00:16:25;8.27;;;4.05;;
75696;SDS011;64312;44.738;20.612;2022-10-29T00:18:53;8.50;;;4.60;;
75696;SDS011;64312;44.738;20.612;2022-10-29T00:21:20;11.32;;;5.47;;
75696;SDS011;64312;44.738;20.612;2022-10-29T00:23:47;10.50;;;6.32;;
75696;SDS011;64312;44.738;20.612;2022-10-29T00:26:13;9.77;;;6.13;;
75696;SDS011;64312;44.738;20.612;2022-10-29T00:28:40;12.18;;;6.22;;
75696;SDS011;64312;44.738;20.612;2022-10-29T00:31:07;9.63;;;5.72;;
75696;SDS011;64312;44.738;20.612;2022-10-29T00:33:36;10.77;;;6.03;;
75696;SDS011;64312;44.738;20.612;2022-10-29T00:36:05;11.02;;;5.85;;
75696;SDS011;64312;44.738;20.612;2022-10-29T00:38:34;9.32;;;5.40;;
75696;SDS011;64312;44.738;20.612;2022-10-29T00:41:00;8.80;;;5.35;;
75696;SDS011;64312;44.738;20.612;2022-10-29T00:43:28;13.35;;;7.18;;
75696;SDS011;64312;44.738;20.612;2022-10-29T00:45:55;14.23;;;7.78;;
75696;SDS011;64312;44.738;20.612;2022-10-29T00:48:24;15.02;;;7.38;;
75696;SDS011;64312;44.738;20.612;2022-10-29T00:50:52;10.65;;;6.35;;
75696;SDS011;64312;44.738;20.612;2022-10-29T00:53:23;12.63;;;6.70;;
75696;SDS011;64312;44.738;20.612;2022-10-29T00:55:52;16.30;;;7.90;;
75696;SDS011;64312;44.738;20.612;2022-10-29T00:58:17;16.02;;;8.75;;
75696;SDS011;64312;44.738;20.612;2022-10-29T01:00:44;10.15;;;6.43;;
75696;SDS011;64312;44.738;20.612;2022-10-29T01:03:10;11.30;;;5.95;;
75696;SDS011;64312;44.738;20.612;2022-10-29T01:05:36;10.27;;;5.20;;
75696;SDS011;64312;44.738;20.612;2022-10-29T01:08:02;12.65;;;7.10;;
75696;SDS011;64312;44.738;20.612;2022-10-29T01:19:06;11.95;;;6.57;;
75696;SDS011;64312;44.738;20.612;2022-10-29T01:21:59;11.38;;;7.10;;
75696;SDS011;64312;44.738;20.612;2022-10-29T01:30:35;10.82;;;5.85;;
75696;SDS011;64312;44.738;20.612;2022-10-29T01:33:13;8.75;;;4.88;;
75696;SDS011;64312;44.738;20.612;2022-10-29T01:35:59;11.25;;;5.70;;
75696;SDS011;64312;44.738;20.612;2022-10-29T01:38:37;9.55;;;5.45;;
75696;SDS011;64312;44.738;20.612;2022-10-29T01:44:00;9.80;;;5.85;;
75696;SDS011;64312;44.738;20.612;2022-10-29T01:46:34;10.85;;;6.00;;
75696;SDS011;64312;44.738;20.612;2022-10-29T01:49:05;8.77;;;5.18;;
75696;SDS011;64312;44.738;20.612;2022-10-29T01:51:35;9.20;;;4.90;;
75696;SDS011;64312;44.738;20.612;2022-10-29T01:54:04;9.77;;;4.88;;
75696;SDS011;64312;44.738;20.612;2022-10-29T01:56:32;7.60;;;4.25;;
75696;SDS011;64312;44.738;20.612;2022-10-29T01:58:58;8.65;;;3.97;;
75696;SDS011;64312;44.738;20.612;2022-10-29T02:01:31;9.63;;;4.30;;
75696;SDS011;64312;44.738;20.612;2022-10-29T02:09:22;7.70;;;4.40;;
75696;SDS011;64312;44.738;20.612;2022-10-29T02:14:55;7.35;;;3.78;;
75696;SDS011;64312;44.738;20.612;2022-10-29T02:17:26;5.55;;;3.53;;
75696;SDS011;64312;44.738;20.612;2022-10-29T02:19:55;6.10;;;3.58;;
75696;SDS011;64312;44.738;20.612;2022-10-29T02:22:21;7.00;;;4.25;;
75696;SDS011;64312;44.738;20.612;2022-10-29T02:24:47;6.72;;;3.95;;
75696;SDS011;64312;44.738;20.612;2022-10-29T02:27:12;8.38;;;4.40;;
75696;SDS011;64312;44.738;20.612;2022-10-29T02:29:38;12.35;;;7.35;;
75696;SDS011;64312;44.738;20.612;2022-10-29T02:32:04;19.48;;;10.95;;
75696;SDS011;64312;44.738;20.612;2022-10-29T02:34:29;14.02;;;8.55;;
75696;SDS011;64312;44.738;20.612;2022-10-29T02:36:55;13.95;;;7.68;;
75696;SDS011;64312;44.738;20.612;2022-10-29T02:39:21;9.90;;;5.82;;
75696;SDS011;64312;44.738;20.612;2022-10-29T02:41:47;11.07;;;5.85;;
75696;SDS011;64312;44.738;20.612;2022-10-29T02:44:12;8.50;;;4.55;;
75696;SDS011;64312;44.738;20.612;2022-10-29T02:46:38;8.93;;;4.93;;
75696;SDS011;64312;44.738;20.612;2022-10-29T02:49:07;10.20;;;5.03;;
75696;SDS011;64312;44.738;20.612;2022-10-29T02:51:33;8.88;;;4.95;;
75696;SDS011;64312;44.738;20.612;2022-10-29T02:53:58;10.48;;;5.78;;
75696;SDS011;64312;44.738;20.612;2022-10-29T02:56:24;8.55;;;4.47;;
75696;SDS011;64312;44.738;20.612;2022-10-29T02:58:49;10.25;;;5.50;;
75696;SDS011;64312;44.738;20.612;2022-10-29T03:01:15;9.25;;;5.30;;
75696;SDS011;64312;44.738;20.612;2022-10-29T03:03:41;8.40;;;4.80;;
75696;SDS011;64312;44.738;20.612;2022-10-29T03:06:13;11.52;;;5.47;;
75696;SDS011;64312;44.738;20.612;2022-10-29T03:08:40;9.57;;;4.40;;
75696;SDS011;64312;44.738;20.612;2022-10-29T03:11:06;8.85;;;4.80;;
75696;SDS011;64312;44.738;20.612;2022-10-29T03:13:32;10.55;;;5.82;;
75696;SDS011;64312;44.738;20.612;2022-10-29T03:15:57;6.88;;;4.72;;
75696;SDS011;64312;44.738;20.612;2022-10-29T03:18:23;7.75;;;4.63;;
75696;SDS011;64312;44.738;20.612;2022-10-29T03:20:48;8.88;;;4.80;;
75696;SDS011;64312;44.738;20.612;2022-10-29T03:23:14;10.73;;;5.65;;
75696;SDS011;64312;44.738;20.612;2022-10-29T03:25:40;9.00;;;4.63;;
75696;SDS011;64312;44.738;20.612;2022-10-29T03:28:05;9.65;;;5.45;;
75696;SDS011;64312;44.738;20.612;2022-10-29T03:30:31;10.02;;;5.35;;
75696;SDS011;64312;44.738;20.612;2022-10-29T03:32:57;9.15;;;5.18;;
75696;SDS011;64312;44.738;20.612;2022-10-29T03:35:23;10.05;;;5.85;;
75696;SDS011;64312;44.738;20.612;2022-10-29T03:37:49;9.18;;;5.80;;
75696;SDS011;64312;44.738;20.612;2022-10-29T03:40:15;10.82;;;5.35;;
75696;SDS011;64312;44.738;20.612;2022-10-29T03:42:42;7.95;;;4.38;;
75696;SDS011;64312;44.738;20.612;2022-10-29T03:45:07;9.75;;;4.88;;
75696;SDS011;64312;44.738;20.612;2022-10-29T03:47:34;9.35;;;5.55;;
75696;SDS011;64312;44.738;20.612;2022-10-29T03:50:00;8.88;;;5.00;;
75696;SDS011;64312;44.738;20.612;2022-10-29T03:52:26;8.38;;;4.88;;
75696;SDS011;64312;44.738;20.612;2022-10-29T03:54:52;7.95;;;4.38;;
75696;SDS011;64312;44.738;20.612;2022-10-29T03:57:18;8.07;;;4.38;;
75696;SDS011;64312;44.738;20.612;2022-10-29T03:59:43;8.70;;;5.13;;
75696;SDS011;64312;44.738;20.612;2022-10-29T04:02:09;12.23;;;5.80;;
75696;SDS011;64312;44.738;20.612;2022-10-29T04:04:37;10.65;;;6.82;;
75696;SDS011;64312;44.738;20.612;2022-10-29T04:07:03;11.65;;;6.53;;
75696;SDS011;64312;44.738;20.612;2022-10-29T04:09:29;13.98;;;7.13;;
75696;SDS011;64312;44.738;20.612;2022-10-29T04:11:54;16.23;;;8.00;;
75696;SDS011;64312;44.738;20.612;2022-10-29T04:14:20;9.77;;;6.25;;
75696;SDS011;64312;44.738;20.612;2022-10-29T04:16:46;12.40;;;6.65;;
75696;SDS011;64312;44.738;20.612;2022-10-29T04:19:11;13.85;;;6.57;;
75696;SDS011;64312;44.738;20.612;2022-10-29T04:21:37;12.40;;;6.70;;
75696;SDS011;64312;44.738;20.612;2022-10-29T04:24:03;12.15;;;6.95;;
75696;SDS011;64312;44.738;20.612;2022-10-29T04:26:29;9.48;;;5.90;;
75696;SDS011;64312;44.738;20.612;2022-10-29T04:28:54;11.30;;;6.30;;
75696;SDS011;64312;44.738;20.612;2022-10-29T04:31:20;10.27;;;5.93;;
75696;SDS011;64312;44.738;20.612;2022-10-29T04:33:45;11.82;;;6.28;;
75696;SDS011;64312;44.738;20.612;2022-10-29T04:36:11;9.15;;;5.40;;
75696;SDS011;64312;44.738;20.612;2022-10-29T04:38:37;8.38;;;5.28;;
75696;SDS011;64312;44.738;20.612;2022-10-29T04:41:03;8.90;;;4.88;;
75696;SDS011;64312;44.738;20.612;2022-10-29T04:43:28;11.30;;;6.28;;
75696;SDS011;64312;44.738;20.612;2022-10-29T04:45:56;10.40;;;5.30;;
75696;SDS011;64312;44.738;20.612;2022-10-29T04:48:23;9.38;;;5.50;;
75696;SDS011;64312;44.738;20.612;2022-10-29T04:50:50;11.82;;;5.82;;
75696;SDS011;64312;44.738;20.612;2022-10-29T04:53:16;13.25;;;6.70;;
75696;SDS011;64312;44.738;20.612;2022-10-29T04:55:42;11.30;;;7.70;;
75696;SDS011;64312;44.738;20.612;2022-10-29T04:58:12;11.40;;;6.82;;
75696;SDS011;64312;44.738;20.612;2022-10-29T05:00:44;9.43;;;5.40;;
75696;SDS011;64312;44.738;20.612;2022-10-29T05:03:09;8.88;;;5.03;;
75696;SDS011;64312;44.738;20.612;2022-10-29T05:05:35;8.05;;;4.85;;
75696;SDS011;64312;44.738;20.612;2022-10-29T05:08:02;10.52;;;5.35;;
75696;SDS011;64312;44.738;20.612;2022-10-29T05:10:31;8.98;;;4.40;;
75696;SDS011;64312;44.738;20.612;2022-10-29T05:13:02;7.68;;;4.32;;
75696;SDS011;64312;44.738;20.612;2022-10-29T05:15:31;7.68;;;4.60;;
75696;SDS011;64312;44.738;20.612;2022-10-29T05:17:57;9.30;;;4.70;;
75696;SDS011;64312;44.738;20.612;2022-10-29T05:20:23;8.02;;;4.20;;
75696;SDS011;64312;44.738;20.612;2022-10-29T05:22:50;11.43;;;6.47;;
75696;SDS011;64312;44.738;20.612;2022-10-29T05:25:23;13.35;;;7.93;;
75696;SDS011;64312;44.738;20.612;2022-10-29T05:27:48;13.02;;;6.55;;
75696;SDS011;64312;44.738;20.612;2022-10-29T05:30:14;9.25;;;5.45;;
75696;SDS011;64312;44.738;20.612;2022-10-29T05:32:39;11.43;;;5.90;;
75696;SDS011;64312;44.738;20.612;2022-10-29T05:35:05;10.68;;;6.30;;
75696;SDS011;64312;44.738;20.612;2022-10-29T05:37:31;11.25;;;6.50;;
75696;SDS011;64312;44.738;20.612;2022-10-29T05:39:57;11.50;;;6.88;;
75696;SDS011;64312;44.738;20.612;2022-10-29T05:42:22;12.05;;;6.88;;
75696;SDS011;64312;44.738;20.612;2022-10-29T05:44:48;13.00;;;7.82;;
75696;SDS011;64312;44.738;20.612;2022-10-29T05:47:13;12.27;;;7.55;;
75696;SDS011;64312;44.738;20.612;2022-10-29T05:49:39;12.25;;;7.65;;
75696;SDS011;64312;44.738;20.612;2022-10-29T05:52:04;10.77;;;6.70;;
75696;SDS011;64312;44.738;20.612;2022-10-29T05:54:30;14.38;;;7.10;;
75696;SDS011;64312;44.738;20.612;2022-10-29T05:56:56;11.68;;;6.05;;
75696;SDS011;64312;44.738;20.612;2022-10-29T05:59:23;11.45;;;6.43;;
75696;SDS011;64312;44.738;20.612;2022-10-29T06:01:48;8.82;;;5.50;;
75696;SDS011;64312;44.738;20.612;2022-10-29T06:04:14;9.98;;;6.57;;
75696;SDS011;64312;44.738;20.612;2022-10-29T06:06:39;10.00;;;5.88;;
75696;SDS011;64312;44.738;20.612;2022-10-29T06:09:06;9.70;;;5.68;;
75696;SDS011;64312;44.738;20.612;2022-10-29T06:11:31;10.40;;;6.38;;
75696;SDS011;64312;44.738;20.612;2022-10-29T06:13:57;9.40;;;5.68;;
75696;SDS011;64312;44.738;20.612;2022-10-29T06:16:23;9.30;;;5.78;;
75696;SDS011;64312;44.738;20.612;2022-10-29T06:18:49;9.77;;;6.15;;
75696;SDS011;64312;44.738;20.612;2022-10-29T06:21:14;9.73;;;6.15;;
75696;SDS011;64312;44.738;20.612;2022-10-29T06:23:40;10.93;;;6.82;;
75696;SDS011;64312;44.738;20.612;2022-10-29T06:26:05;12.20;;;7.60;;
75696;SDS011;64312;44.738;20.612;2022-10-29T06:28:31;12.40;;;6.05;;
75696;SDS011;64312;44.738;20.612;2022-10-29T06:30:57;8.48;;;5.05;;
75696;SDS011;64312;44.738;20.612;2022-10-29T06:33:23;8.48;;;4.68;;
75696;SDS011;64312;44.738;20.612;2022-10-29T06:35:48;6.85;;;4.45;;
75696;SDS011;64312;44.738;20.612;2022-10-29T06:38:14;7.70;;;4.45;;
75696;SDS011;64312;44.738;20.612;2022-10-29T06:40:40;9.32;;;5.63;;
75696;SDS011;64312;44.738;20.612;2022-10-29T06:43:08;13.13;;;7.38;;
75696;SDS011;64312;44.738;20.612;2022-10-29T06:45:35;12.18;;;7.32;;
75696;SDS011;64312;44.738;20.612;2022-10-29T06:48:01;13.45;;;7.30;;
75696;SDS011;64312;44.738;20.612;2022-10-29T06:50:29;15.05;;;7.75;;
75696;SDS011;64312;44.738;20.612;2022-10-29T06:52:59;13.10;;;7.43;;
75696;SDS011;64312;44.738;20.612;2022-10-29T06:55:26;13.05;;;6.40;;
75696;SDS011;64312;44.738;20.612;2022-10-29T06:57:56;11.00;;;6.00;;
75696;SDS011;64312;44.738;20.612;2022-10-29T07:00:26;7.93;;;5.10;;
75696;SDS011;64312;44.738;20.612;2022-10-29T07:02:53;10.95;;;5.75;;
75696;SDS011;64312;44.738;20.612;2022-10-29T07:05:19;8.57;;;5.25;;
75696;SDS011;64312;44.738;20.612;2022-10-29T07:07:45;10.75;;;6.72;;
75696;SDS011;64312;44.738;20.612;2022-10-29T07:10:11;11.73;;;6.63;;
75696;SDS011;64312;44.738;20.612;2022-10-29T07:12:40;10.07;;;6.70;;
75696;SDS011;64312;44.738;20.612;2022-10-29T07:15:07;10.80;;;6.13;;
75696;SDS011;64312;44.738;20.612;2022-10-29T07:17:33;10.63;;;5.63;;
75696;SDS011;64312;44.738;20.612;2022-10-29T07:19:59;11.02;;;5.28;;
75696;SDS011;64312;44.738;20.612;2022-10-29T07:22:24;10.05;;;6.38;;
75696;SDS011;64312;44.738;20.612;2022-10-29T07:24:50;10.50;;;6.60;;
75696;SDS011;64312;44.738;20.612;2022-10-29T07:27:16;10.82;;;6.78;;
75696;SDS011;64312;44.738;20.612;2022-10-29T07:29:42;14.25;;;9.30;;
75696;SDS011;64312;44.738;20.612;2022-10-29T07:32:07;14.30;;;7.20;;
75696;SDS011;64312;44.738;20.612;2022-10-29T07:34:33;9.98;;;5.97;;
75696;SDS011;64312;44.738;20.612;2022-10-29T07:36:58;13.20;;;7.78;;
75696;SDS011;64312;44.738;20.612;2022-10-29T07:39:24;14.15;;;7.78;;
75696;SDS011;64312;44.738;20.612;2022-10-29T07:41:49;13.02;;;7.68;;
75696;SDS011;64312;44.738;20.612;2022-10-29T07:44:15;13.30;;;7.60;;
75696;SDS011;64312;44.738;20.612;2022-10-29T07:46:41;15.18;;;8.65;;
75696;SDS011;64312;44.738;20.612;2022-10-29T07:49:06;13.55;;;8.38;;
75696;SDS011;64312;44.738;20.612;2022-10-29T07:51:32;18.80;;;10.38;;
75696;SDS011;64312;44.738;20.612;2022-10-29T07:53:57;15.60;;;7.95;;
75696;SDS011;64312;44.738;20.612;2022-10-29T07:56:23;23.33;;;13.13;;
75696;SDS011;64312;44.738;20.612;2022-10-29T07:58:48;23.02;;;12.35;;
75696;SDS011;64312;44.738;20.612;2022-10-29T08:01:14;16.77;;;9.43;;
75696;SDS011;64312;44.738;20.612;2022-10-29T08:03:40;17.25;;;9.75;;
75696;SDS011;64312;44.738;20.612;2022-10-29T08:06:05;15.65;;;8.88;;
75696;SDS011;64312;44.738;20.612;2022-10-29T08:08:31;10.93;;;6.85;;
75696;SDS011;64312;44.738;20.612;2022-10-29T08:11:02;13.40;;;7.20;;
75696;SDS011;64312;44.738;20.612;2022-10-29T08:13:29;16.20;;;8.48;;
75696;SDS011;64312;44.738;20.612;2022-10-29T08:15:55;17.15;;;10.23;;
75696;SDS011;64312;44.738;20.612;2022-10-29T08:18:21;13.77;;;8.05;;
75696;SDS011;64312;44.738;20.612;2022-10-29T08:20:47;11.15;;;6.13;;
75696;SDS011;64312;44.738;20.612;2022-10-29T08:23:13;13.90;;;6.53;;
75696;SDS011;64312;44.738;20.612;2022-10-29T08:25:39;9.23;;;5.38;;
75696;SDS011;64312;44.738;20.612;2022-10-29T08:28:08;10.85;;;5.95;;
75696;SDS011;64312;44.738;20.612;2022-10-29T08:30:35;10.60;;;6.32;;
75696;SDS011;64312;44.738;20.612;2022-10-29T08:33:02;9.95;;;6.20;;
75696;SDS011;64312;44.738;20.612;2022-10-29T08:35:28;7.65;;;5.22;;
75696;SDS011;64312;44.738;20.612;2022-10-29T08:37:55;8.77;;;5.65;;
75696;SDS011;64312;44.738;20.612;2022-10-29T08:40:34;14.90;;;8.35;;
75696;SDS011;64312;44.738;20.612;2022-10-29T08:45:53;11.82;;;7.13;;
75696;SDS011;64312;44.738;20.612;2022-10-29T08:48:27;10.02;;;5.68;;
75696;SDS011;64312;44.738;20.612;2022-10-29T08:53:59;13.75;;;8.52;;
75696;SDS011;64312;44.738;20.612;2022-10-29T08:58:56;17.38;;;10.50;;
75696;SDS011;64312;44.738;20.612;2022-10-29T09:01:27;19.90;;;10.60;;
75696;SDS011;64312;44.738;20.612;2022-10-29T09:03:54;24.08;;;13.82;;
75696;SDS011;64312;44.738;20.612;2022-10-29T09:06:25;20.92;;;11.45;;
75696;SDS011;64312;44.738;20.612;2022-10-29T09:14:02;37.67;;;18.52;;
75696;SDS011;64312;44.738;20.612;2022-10-29T09:22:42;28.58;;;16.10;;
75696;SDS011;64312;44.738;20.612;2022-10-29T09:26:02;27.67;;;14.32;;
75696;SDS011;64312;44.738;20.612;2022-10-29T09:30:51;28.48;;;14.32;;
75696;SDS011;64312;44.738;20.612;2022-10-29T09:33:19;30.00;;;16.50;;
75696;SDS011;64312;44.738;20.612;2022-10-29T09:35:48;37.70;;;19.77;;
75696;SDS011;64312;44.738;20.612;2022-10-29T09:38:19;38.95;;;19.17;;
75696;SDS011;64312;44.738;20.612;2022-10-29T09:40:48;32.85;;;18.45;;
75696;SDS011;64312;44.738;20.612;2022-10-29T09:46:19;46.35;;;24.02;;
75696;SDS011;64312;44.738;20.612;2022-10-29T09:48:58;41.97;;;19.70;;
75696;SDS011;64312;44.738;20.612;2022-10-29T09:51:33;42.00;;;21.00;;
75696;SDS011;64312;44.738;20.612;2022-10-29T09:54:24;42.20;;;19.48;;
75696;SDS011;64312;44.738;20.612;2022-10-29T09:56:53;41.75;;;21.48;;
75696;SDS011;64312;44.738;20.612;2022-10-29T10:02:16;48.00;;;21.45;;
75696;SDS011;64312;44.738;20.612;2022-10-29T10:05:06;44.75;;;20.77;;
75696;SDS011;64312;44.738;20.612;2022-10-29T10:07:39;49.78;;;23.65;;
75696;SDS011;64312;44.738;20.612;2022-10-29T10:10:06;55.80;;;26.05;;
75696;SDS011;64312;44.738;20.612;2022-10-29T10:12:53;50.10;;;25.05;;
75696;SDS011;64312;44.738;20.612;2022-10-29T10:15:28;48.78;;;21.88;;
75696;SDS011;64312;44.738;20.612;2022-10-29T10:17:59;44.45;;;24.63;;
75696;SDS011;64312;44.738;20.612;2022-10-29T10:20:58;41.88;;;22.85;;
75696;SDS011;64312;44.738;20.612;2022-10-29T10:26:03;34.80;;;18.13;;
75696;SDS011;64312;44.738;20.612;2022-10-29T10:28:29;28.13;;;14.13;;
75696;SDS011;64312;44.738;20.612;2022-10-29T10:33:36;22.77;;;13.13;;
75696;SDS011;64312;44.738;20.612;2022-10-29T10:36:12;18.90;;;9.55;;
75696;SDS011;64312;44.738;20.612;2022-10-29T10:38:39;14.05;;;7.68;;
75696;SDS011;64312;44.738;20.612;2022-10-29T10:41:10;29.42;;;14.65;;
75696;SDS011;64312;44.738;20.612;2022-10-29T10:43:40;42.80;;;19.65;;
75696;SDS011;64312;44.738;20.612;2022-10-29T10:46:17;56.25;;;26.67;;
75696;SDS011;64312;44.738;20.612;2022-10-29T10:48:58;66.85;;;31.85;;
75696;SDS011;64312;44.738;20.612;2022-10-29T10:51:28;65.43;;;32.47;;
75696;SDS011;64312;44.738;20.612;2022-10-29T10:53:58;59.47;;;26.50;;
75696;SDS011;64312;44.738;20.612;2022-10-29T10:56:25;48.97;;;24.80;;
75696;SDS011;64312;44.738;20.612;2022-10-29T10:59:03;57.30;;;28.50;;
75696;SDS011;64312;44.738;20.612;2022-10-29T11:01:37;44.58;;;22.33;;
75696;SDS011;64312;44.738;20.612;2022-10-29T11:06:43;27.67;;;16.35;;
75696;SDS011;64312;44.738;20.612;2022-10-29T11:11:56;21.58;;;11.88;;
75696;SDS011;64312;44.738;20.612;2022-10-29T11:14:36;20.67;;;12.45;;
75696;SDS011;64312;44.738;20.612;2022-10-29T11:17:23;22.20;;;10.07;;
75696;SDS011;64312;44.738;20.612;2022-10-29T11:19:49;17.77;;;9.70;;
75696;SDS011;64312;44.738;20.612;2022-10-29T11:22:25;19.33;;;9.55;;
75696;SDS011;64312;44.738;20.612;2022-10-29T11:24:59;28.02;;;15.27;;
75696;SDS011;64312;44.738;20.612;2022-10-29T11:27:48;25.80;;;13.15;;
75696;SDS011;64312;44.738;20.612;2022-10-29T11:30:19;25.95;;;14.25;;
75696;SDS011;64312;44.738;20.612;2022-10-29T11:40:55;13.80;;;8.13;;
75696;SDS011;64312;44.738;20.612;2022-10-29T11:43:29;31.83;;;16.48;;
75696;SDS011;64312;44.738;20.612;2022-10-29T11:56:53;21.05;;;10.60;;
75696;SDS011;64312;44.738;20.612;2022-10-29T12:02:21;41.70;;;21.45;;
75696;SDS011;64312;44.738;20.612;2022-10-29T12:08:03;33.33;;;16.30;;
75696;SDS011;64312;44.738;20.612;2022-10-29T12:13:59;32.50;;;16.30;;
75696;SDS011;64312;44.738;20.612;2022-10-29T12:30:16;29.48;;;13.60;;
75696;SDS011;64312;44.738;20.612;2022-10-29T12:38:06;27.35;;;12.63;;
75696;SDS011;64312;44.738;20.612;2022-10-29T12:40:37;25.08;;;12.85;;
75696;SDS011;64312;44.738;20.612;2022-10-29T12:43:10;43.42;;;19.13;;
75696;SDS011;64312;44.738;20.612;2022-10-29T12:45:45;36.13;;;18.38;;
75696;SDS011;64312;44.738;20.612;2022-10-29T12:51:46;36.58;;;18.92;;
75696;SDS011;64312;44.738;20.612;2022-10-29T12:57:21;27.83;;;13.15;;
75696;SDS011;64312;44.738;20.612;2022-10-29T12:59:52;49.78;;;21.30;;
75696;SDS011;64312;44.738;20.612;2022-10-29T13:07:31;38.90;;;19.25;;
75696;SDS011;64312;44.738;20.612;2022-10-29T13:15:44;36.30;;;18.05;;
75696;SDS011;64312;44.738;20.612;2022-10-29T13:21:36;45.53;;;18.83;;
75696;SDS011;64312;44.738;20.612;2022-10-29T13:24:20;37.78;;;18.60;;
75696;SDS011;64312;44.738;20.612;2022-10-29T13:32:33;40.65;;;17.48;;
75696;SDS011;64312;44.738;20.612;2022-10-29T13:40:39;33.28;;;17.00;;
75696;SDS011;64312;44.738;20.612;2022-10-29T13:45:32;38.63;;;18.95;;
75696;SDS011;64312;44.738;20.612;2022-10-29T13:48:01;30.90;;;14.55;;
75696;SDS011;64312;44.738;20.612;2022-10-29T13:50:30;30.70;;;15.73;;
75696;SDS011;64312;44.738;20.612;2022-10-29T13:52:59;31.75;;;14.60;;
75696;SDS011;64312;44.738;20.612;2022-10-29T13:55:29;33.90;;;15.68;;
75696;SDS011;64312;44.738;20.612;2022-10-29T13:58:08;20.60;;;10.98;;
75696;SDS011;64312;44.738;20.612;2022-10-29T14:00:38;24.75;;;12.82;;
75696;SDS011;64312;44.738;20.612;2022-10-29T14:03:10;32.55;;;17.20;;
75696;SDS011;64312;44.738;20.612;2022-10-29T14:11:16;20.08;;;10.77;;
75696;SDS011;64312;44.738;20.612;2022-10-29T14:13:47;19.15;;;11.63;;
75696;SDS011;64312;44.738;20.612;2022-10-29T14:16:23;19.67;;;11.45;;
75696;SDS011;64312;44.738;20.612;2022-10-29T14:18:53;25.08;;;11.15;;
75696;SDS011;64312;44.738;20.612;2022-10-29T14:21:26;15.65;;;10.05;;
75696;SDS011;64312;44.738;20.612;2022-10-29T14:23:58;26.50;;;16.02;;
75696;SDS011;64312;44.738;20.612;2022-10-29T14:26:29;32.33;;;16.60;;
75696;SDS011;64312;44.738;20.612;2022-10-29T14:29:11;22.92;;;13.75;;
75696;SDS011;64312;44.738;20.612;2022-10-29T14:34:48;23.08;;;11.73;;
75696;SDS011;64312;44.738;20.612;2022-10-29T14:37:29;20.45;;;11.00;;
75696;SDS011;64312;44.738;20.612;2022-10-29T14:40:00;20.02;;;11.27;;
75696;SDS011;64312;44.738;20.612;2022-10-29T14:42:34;17.55;;;10.27;;
75696;SDS011;64312;44.738;20.612;2022-10-29T14:45:04;24.67;;;13.95;;
75696;SDS011;64312;44.738;20.612;2022-10-29T14:47:38;18.33;;;10.63;;
75696;SDS011;64312;44.738;20.612;2022-10-29T14:50:05;21.40;;;11.63;;
75696;SDS011;64312;44.738;20.612;2022-10-29T14:52:43;22.38;;;11.57;;
75696;SDS011;64312;44.738;20.612;2022-10-29T14:55:30;21.02;;;11.77;;
75696;SDS011;64312;44.738;20.612;2022-10-29T14:58:01;16.00;;;9.27;;
75696;SDS011;64312;44.738;20.612;2022-10-29T15:00:32;15.60;;;8.35;;
75696;SDS011;64312;44.738;20.612;2022-10-29T15:03:03;13.73;;;8.00;;
75696;SDS011;64312;44.738;20.612;2022-10-29T15:05:34;11.15;;;7.38;;
75696;SDS011;64312;44.738;20.612;2022-10-29T15:10:47;9.25;;;5.75;;
75696;SDS011;64312;44.738;20.612;2022-10-29T15:13:23;9.68;;;5.55;;
75696;SDS011;64312;44.738;20.612;2022-10-29T15:16:00;9.20;;;6.03;;
75696;SDS011;64312;44.738;20.612;2022-10-29T15:18:28;7.93;;;6.18;;
75696;SDS011;64312;44.738;20.612;2022-10-29T15:20:55;8.13;;;5.55;;
75696;SDS011;64312;44.738;20.612;2022-10-29T15:26:05;8.60;;;4.88;;
75696;SDS011;64312;44.738;20.612;2022-10-29T15:28:38;7.95;;;4.63;;
75696;SDS011;64312;44.738;20.612;2022-10-29T15:31:05;7.57;;;4.57;;
75696;SDS011;64312;44.738;20.612;2022-10-29T15:33:31;7.82;;;4.78;;
75696;SDS011;64312;44.738;20.612;2022-10-29T15:36:02;6.40;;;4.65;;
75696;SDS011;64312;44.738;20.612;2022-10-29T15:43:32;8.80;;;4.80;;
75696;SDS011;64312;44.738;20.612;2022-10-29T15:46:02;6.82;;;4.15;;
75696;SDS011;64312;44.738;20.612;2022-10-29T15:48:34;7.72;;;4.47;;
75696;SDS011;64312;44.738;20.612;2022-10-29T15:51:01;7.65;;;4.22;;
75696;SDS011;64312;44.738;20.612;2022-10-29T15:53:28;7.80;;;4.63;;
75696;SDS011;64312;44.738;20.612;2022-10-29T15:55:54;6.68;;;4.53;;
75696;SDS011;64312;44.738;20.612;2022-10-29T15:58:20;7.10;;;4.45;;
75696;SDS011;64312;44.738;20.612;2022-10-29T16:00:47;7.47;;;4.57;;
75696;SDS011;64312;44.738;20.612;2022-10-29T16:05:43;6.47;;;4.05;;
75696;SDS011;64312;44.738;20.612;2022-10-29T16:08:27;8.45;;;4.88;;
75696;SDS011;64312;44.738;20.612;2022-10-29T16:10:56;8.65;;;5.68;;
75696;SDS011;64312;44.738;20.612;2022-10-29T16:13:23;7.68;;;4.90;;
75696;SDS011;64312;44.738;20.612;2022-10-29T16:15:51;8.35;;;4.65;;
75696;SDS011;64312;44.738;20.612;2022-10-29T16:18:17;9.05;;;5.07;;
75696;SDS011;64312;44.738;20.612;2022-10-29T16:20:43;10.70;;;7.20;;
75696;SDS011;64312;44.738;20.612;2022-10-29T16:23:09;16.35;;;9.32;;
75696;SDS011;64312;44.738;20.612;2022-10-29T16:25:36;13.27;;;8.00;;
75696;SDS011;64312;44.738;20.612;2022-10-29T16:28:02;14.95;;;8.80;;
75696;SDS011;64312;44.738;20.612;2022-10-29T16:30:28;15.48;;;8.48;;
75696;SDS011;64312;44.738;20.612;2022-10-29T16:32:53;15.68;;;8.27;;
75696;SDS011;64312;44.738;20.612;2022-10-29T16:35:20;15.85;;;7.82;;
75696;SDS011;64312;44.738;20.612;2022-10-29T16:37:48;13.20;;;7.00;;
75696;SDS011;64312;44.738;20.612;2022-10-29T16:40:15;15.20;;;7.80;;
75696;SDS011;64312;44.738;20.612;2022-10-29T16:42:41;16.75;;;9.48;;
75696;SDS011;64312;44.738;20.612;2022-10-29T16:45:09;17.48;;;10.15;;
75696;SDS011;64312;44.738;20.612;2022-10-29T16:47:40;17.85;;;10.52;;
75696;SDS011;64312;44.738;20.612;2022-10-29T16:50:06;16.25;;;8.75;;
75696;SDS011;64312;44.738;20.612;2022-10-29T16:52:32;14.68;;;8.85;;
75696;SDS011;64312;44.738;20.612;2022-10-29T16:54:58;13.23;;;7.63;;
75696;SDS011;64312;44.738;20.612;2022-10-29T16:57:23;12.80;;;7.25;;
75696;SDS011;64312;44.738;20.612;2022-10-29T16:59:49;13.35;;;7.65;;
75696;SDS011;64312;44.738;20.612;2022-10-29T17:02:15;13.85;;;8.20;;
75696;SDS011;64312;44.738;20.612;2022-10-29T17:04:41;14.27;;;7.00;;
75696;SDS011;64312;44.738;20.612;2022-10-29T17:07:06;13.73;;;7.32;;
75696;SDS011;64312;44.738;20.612;2022-10-29T17:09:32;15.68;;;8.40;;
75696;SDS011;64312;44.738;20.612;2022-10-29T17:12:00;12.80;;;7.15;;
75696;SDS011;64312;44.738;20.612;2022-10-29T17:14:26;15.73;;;8.43;;
75696;SDS011;64312;44.738;20.612;2022-10-29T17:16:51;15.68;;;8.38;;
75696;SDS011;64312;44.738;20.612;2022-10-29T17:19:17;17.85;;;10.65;;